Time;durP1;ratioP1;P1;durP2;ratioP2;P2;SDS_P1;SDS_P2;PMS_P1;PMS_P2;Temp;Humidity;BMP_temperature;BMP_pressure;BME280_temperature;BME280_humidity;BME280_pressure;Samples;Min_cycle;Max_cycle;Signal;HPM_P1;HPM_P2
2022/10/09 00:00:44;;;;;;;7.15;2.80;;;;;;;10.86;100.00;97282.63;4965595;28;20042;-67
2022/10/09 00:03:10;;;;;;;9.02;2.83;;;;;;;10.82;100.00;97280.94;4960597;28;20043;-67
2022/10/09 00:05:36;;;;;;;10.88;2.90;;;;;;;10.81;100.00;97287.56;4964281;28;20125;-68
2022/10/09 00:08:02;;;;;;;10.18;3.05;;;;;;;10.80;100.00;97277.75;4966063;28;20133;-68
2022/10/09 00:10:27;;;;;;;7.55;2.60;;;;;;;10.83;100.00;97280.59;4960267;28;20038;-68
2022/10/09 00:12:52;;;;;;;10.73;3.28;;;;;;;10.83;100.00;97272.38;4965034;28;20042;-67
2022/10/09 00:15:18;;;;;;;7.32;2.45;;;;;;;10.83;100.00;97266.88;4961131;28;20491;-67
2022/10/09 00:17:44;;;;;;;8.88;2.97;;;;;;;10.78;100.00;97269.09;4964837;28;20137;-67
2022/10/09 00:20:10;;;;;;;9.75;2.72;;;;;;;10.81;100.00;97276.63;4968989;28;20038;-66
2022/10/09 00:22:35;;;;;;;6.30;2.28;;;;;;;10.82;100.00;97269.97;4969542;28;20043;-66
2022/10/09 00:25:01;;;;;;;8.32;2.90;;;;;;;10.78;100.00;97260.88;4990323;28;20050;-68
2022/10/09 00:27:26;;;;;;;8.27;2.25;;;;;;;10.78;100.00;97269.09;4978976;28;20046;-68
2022/10/09 00:29:52;;;;;;;9.57;2.38;;;;;;;10.77;100.00;97253.78;4976166;28;20459;-68
2022/10/09 00:32:17;;;;;;;6.35;2.10;;;;;;;10.78;100.00;97264.41;4972690;28;20065;-67
2022/10/09 00:34:43;;;;;;;12.75;2.65;;;;;;;10.74;100.00;97257.25;4984427;28;20101;-68
2022/10/09 00:37:09;;;;;;;6.32;2.72;;;;;;;10.73;100.00;97261.94;4998597;28;20046;-68
2022/10/09 00:39:34;;;;;;;7.93;2.50;;;;;;;10.71;100.00;97265.03;5004636;28;20136;-66
2022/10/09 00:42:01;;;;;;;7.53;2.90;;;;;;;10.78;100.00;97249.91;5003614;28;20058;-68
2022/10/09 00:45:02;;;;;;;8.80;3.03;;;;;;;10.76;100.00;97244.00;4999755;28;20049;-68
2022/10/09 00:47:58;;;;;;;6.55;2.83;;;;;;;10.68;100.00;97246.56;4921323;29;20039;-67
2022/10/09 00:50:30;;;;;;;9.43;3.22;;;;;;;10.77;100.00;97238.16;4995783;28;20128;-67
2022/10/09 00:52:59;;;;;;;9.25;3.08;;;;;;;10.80;100.00;97242.13;5006206;28;20042;-70
2022/10/09 00:55:26;;;;;;;6.57;3.13;;;;;;;10.80;100.00;97234.69;5000727;28;20115;-65
2022/10/09 00:57:53;;;;;;;6.78;2.45;;;;;;;10.75;100.00;97237.72;5004180;28;20137;-68
2022/10/09 01:00:19;;;;;;;4.65;2.55;;;;;;;10.66;100.00;97223.41;4998968;28;20490;-68
2022/10/09 01:02:45;;;;;;;7.28;2.80;;;;;;;10.65;100.00;97221.81;5004103;28;20091;-67
2022/10/09 01:05:12;;;;;;;14.55;2.63;;;;;;;10.66;100.00;97217.91;4998628;28;20064;-67
2022/10/09 01:08:06;;;;;;;7.80;2.90;;;;;;;10.58;100.00;97216.97;5002164;28;20053;-67
2022/10/09 01:10:51;;;;;;;9.80;2.60;;;;;;;10.55;100.00;97214.13;5012179;28;20041;-67
2022/10/09 01:13:56;;;;;;;7.00;2.55;;;;;;;10.49;100.00;97202.66;5013555;28;20062;-67
2022/10/09 01:16:29;;;;;;;6.43;2.92;;;;;;;10.47;100.00;97205.75;5001819;28;20055;-68
2022/10/09 01:19:05;;;;;;;8.20;3.20;;;;;;;10.33;100.00;97203.47;4992353;28;20046;-68
2022/10/09 01:21:55;;;;;;;7.55;2.80;;;;;;;10.29;100.00;97201.72;4982562;28;20527;-68
2022/10/09 01:24:27;;;;;;;7.63;2.85;;;;;;;10.22;100.00;97191.38;4978782;28;20050;-68
2022/10/09 01:27:14;;;;;;;10.70;2.50;;;;;;;10.13;100.00;97193.50;4994136;28;20062;-66
2022/10/09 01:29:47;;;;;;;5.95;2.70;;;;;;;10.20;100.00;97185.47;4975783;28;20046;-68
2022/10/09 01:32:17;;;;;;;9.07;3.30;;;;;;;10.16;100.00;97186.56;4961219;28;20053;-68
2022/10/09 01:34:44;;;;;;;8.35;2.55;;;;;;;10.13;100.00;97188.81;4984164;28;20038;-67
2022/10/09 01:37:12;;;;;;;9.27;2.78;;;;;;;10.18;100.00;97178.78;4977454;28;20042;-68
2022/10/09 01:39:38;;;;;;;7.28;2.75;;;;;;;10.13;100.00;97182.56;4982909;28;20097;-67
2022/10/09 01:42:05;;;;;;;8.57;3.05;;;;;;;10.15;100.00;97177.53;4979074;28;20052;-67
2022/10/09 01:44:33;;;;;;;9.32;3.50;;;;;;;10.19;100.00;97174.88;4983326;28;20527;-67
2022/10/09 01:46:59;;;;;;;11.38;3.00;;;;;;;10.09;100.00;97168.78;4982868;28;20042;-67
2022/10/09 01:49:44;;;;;;;11.63;3.10;;;;;;;10.23;100.00;97154.66;4978113;28;20110;-68
2022/10/09 01:52:24;;;;;;;5.25;2.42;;;;;;;10.07;100.00;97162.06;4978510;28;20049;-68
2022/10/09 01:55:12;;;;;;;4.28;2.67;;;;;;;10.08;100.00;97155.44;4982655;28;20046;-68
2022/10/09 01:58:03;;;;;;;11.38;2.95;;;;;;;9.96;100.00;97159.06;4981978;28;20077;-67
2022/10/09 02:00:33;;;;;;;5.82;3.10;;;;;;;9.93;100.00;97160.53;4979978;28;20038;-67
2022/10/09 02:03:01;;;;;;;11.63;2.80;;;;;;;9.91;100.00;97148.38;4980593;28;20057;-68
2022/10/09 02:05:29;;;;;;;5.60;2.45;;;;;;;9.93;100.00;97157.81;4977900;28;20043;-67
2022/10/09 02:07:57;;;;;;;6.68;2.63;;;;;;;9.90;100.00;97157.72;4983860;28;20046;-67
2022/10/09 02:10:24;;;;;;;12.30;2.88;;;;;;;9.84;100.00;97138.03;4977102;28;20378;-67
2022/10/09 02:12:56;;;;;;;11.38;3.22;;;;;;;9.83;100.00;97157.53;4982617;28;20061;-68
2022/10/09 02:15:37;;;;;;;7.60;2.67;;;;;;;9.84;100.00;97146.25;4977190;28;20249;-68
2022/10/09 02:18:11;;;;;;;8.48;2.75;;;;;;;9.85;100.00;97155.22;4978735;28;20502;-67
2022/10/09 02:20:43;;;;;;;5.85;2.80;;;;;;;9.91;100.00;97149.16;4962939;28;20089;-67
2022/10/09 02:23:10;;;;;;;7.43;2.60;;;;;;;9.92;100.00;97155.41;4958613;28;20573;-69
2022/10/09 02:25:36;;;;;;;9.35;2.45;;;;;;;9.80;100.00;97160.97;4976838;28;20054;-68
2022/10/09 02:28:02;;;;;;;3.50;2.10;;;;;;;9.85;100.00;97157.97;4976478;28;20057;-67
2022/10/09 02:30:38;;;;;;;9.93;3.08;;;;;;;9.73;100.00;97154.16;4977482;28;20197;-67
2022/10/09 02:33:04;;;;;;;7.47;2.65;;;;;;;9.82;100.00;97153.22;4979973;28;20141;-66
2022/10/09 02:35:30;;;;;;;8.70;2.88;;;;;;;9.76;100.00;97148.00;4981188;28;20145;-67
2022/10/09 02:37:56;;;;;;;9.63;2.72;;;;;;;9.82;100.00;97148.53;4982215;28;20129;-67
2022/10/09 02:40:21;;;;;;;4.85;2.15;;;;;;;9.83;100.00;97146.59;4978633;28;20072;-67
2022/10/09 02:42:46;;;;;;;8.25;2.97;;;;;;;9.74;100.00;97144.00;4980399;28;20043;-67
2022/10/09 02:45:12;;;;;;;10.57;2.55;;;;;;;9.71;100.00;97142.00;4977171;28;20046;-68
2022/10/09 02:47:37;;;;;;;6.43;2.33;;;;;;;9.75;100.00;97140.91;4981779;28;20068;-68
2022/10/09 02:50:03;;;;;;;9.30;2.90;;;;;;;9.74;100.00;97141.28;4980617;28;20046;-68
2022/10/09 02:52:29;;;;;;;5.60;2.80;;;;;;;9.75;100.00;97148.34;4980929;28;20137;-68
2022/10/09 02:54:54;;;;;;;6.90;2.70;;;;;;;9.60;100.00;97147.16;4981832;28;20042;-68
2022/10/09 02:57:20;;;;;;;8.32;2.75;;;;;;;9.50;100.00;97145.72;4976941;28;20046;-68
2022/10/09 02:59:45;;;;;;;10.13;2.78;;;;;;;9.55;100.00;97141.94;4980785;28;20038;-68
2022/10/09 03:02:11;;;;;;;5.18;2.88;;;;;;;9.53;100.00;97134.09;4978471;28;20042;-68
2022/10/09 03:04:36;;;;;;;11.40;3.03;;;;;;;9.59;100.00;97131.09;4982101;28;20137;-68
2022/10/09 03:07:02;;;;;;;7.97;2.65;;;;;;;9.59;100.00;97142.84;4979609;28;20074;-69
2022/10/09 03:09:28;;;;;;;9.45;2.70;;;;;;;9.50;100.00;97134.78;4975633;28;20270;-69
2022/10/09 03:11:53;;;;;;;9.80;3.40;;;;;;;9.53;100.00;97142.28;4981838;28;20038;-69
2022/10/09 03:14:19;;;;;;;7.55;3.13;;;;;;;9.51;100.00;97136.38;4976983;28;20047;-68
2022/10/09 03:16:44;;;;;;;9.07;3.10;;;;;;;9.46;100.00;97130.38;4980886;28;20042;-68
2022/10/09 03:19:09;;;;;;;11.70;3.20;;;;;;;9.50;100.00;97121.09;4975851;28;20061;-67
2022/10/09 03:21:35;;;;;;;9.93;3.70;;;;;;;9.47;100.00;97129.22;4979100;28;20128;-68
2022/10/09 03:24:00;;;;;;;12.73;3.38;;;;;;;9.36;100.00;97123.44;4980771;28;20053;-68
2022/10/09 03:26:26;;;;;;;8.70;3.88;;;;;;;9.37;100.00;97117.63;4976344;28;20515;-69
2022/10/09 03:28:53;;;;;;;13.25;4.10;;;;;;;9.37;100.00;97127.78;4989691;28;20371;-69
2022/10/09 03:31:21;;;;;;;10.30;3.80;;;;;;;9.33;100.00;97124.16;4983996;28;20046;-67
2022/10/09 03:33:47;;;;;;;7.97;3.30;;;;;;;9.30;100.00;97119.38;4991059;28;20125;-67
2022/10/09 03:36:13;;;;;;;12.20;3.85;;;;;;;9.26;100.00;97126.69;4983048;28;20089;-67
2022/10/09 03:38:38;;;;;;;7.60;3.40;;;;;;;9.24;100.00;97116.09;4982882;28;20126;-68
2022/10/09 03:41:05;;;;;;;12.68;4.00;;;;;;;9.26;100.00;97110.28;4978268;28;20046;-68
2022/10/09 03:43:32;;;;;;;13.52;4.57;;;;;;;9.32;100.00;97122.56;4982263;28;20240;-67
2022/10/09 03:45:57;;;;;;;9.38;3.88;;;;;;;9.24;100.00;97121.56;4981047;28;20364;-68
2022/10/09 03:48:23;;;;;;;11.13;4.18;;;;;;;9.26;100.00;97115.75;4976481;28;20132;-68
2022/10/09 03:50:49;;;;;;;10.02;4.03;;;;;;;9.25;100.00;97119.63;4981088;28;20038;-68
2022/10/09 03:53:14;;;;;;;14.10;4.70;;;;;;;9.27;100.00;97104.47;4976340;28;20050;-68
2022/10/09 03:55:41;;;;;;;12.60;4.53;;;;;;;9.28;100.00;97100.59;4979829;28;20050;-68
2022/10/09 03:58:09;;;;;;;11.77;4.25;;;;;;;9.25;100.00;97112.22;4991196;28;20073;-68
2022/10/09 04:00:35;;;;;;;8.38;4.47;;;;;;;9.22;100.00;97102.00;4996631;28;20070;-67
2022/10/09 04:03:01;;;;;;;10.70;4.25;;;;;;;9.23;100.00;97100.06;4981708;28;20140;-68
2022/10/09 04:05:26;;;;;;;16.98;4.72;;;;;;;9.18;100.00;97093.69;4975756;28;20137;-68
2022/10/09 04:07:52;;;;;;;14.13;5.00;;;;;;;9.10;100.00;97099.31;4981552;28;20137;-68
2022/10/09 04:10:18;;;;;;;13.30;4.30;;;;;;;9.11;100.00;97098.16;4974109;28;20174;-69
2022/10/09 04:12:44;;;;;;;14.52;5.00;;;;;;;9.11;100.00;97095.41;4979392;28;20049;-68
2022/10/09 04:15:10;;;;;;;11.45;4.90;;;;;;;9.07;100.00;97095.31;4975829;28;20034;-68
2022/10/09 04:17:37;;;;;;;11.30;5.25;;;;;;;9.01;100.00;97099.44;4980659;28;20034;-69
2022/10/09 04:20:03;;;;;;;13.80;4.75;;;;;;;9.02;100.00;97101.06;4979356;28;20046;-71
2022/10/09 04:22:30;;;;;;;9.15;4.80;;;;;;;8.94;100.00;97112.91;4989908;28;20042;-68
2022/10/09 04:24:55;;;;;;;12.52;5.00;;;;;;;8.90;100.00;97104.59;4990808;28;20110;-68
2022/10/09 04:27:20;;;;;;;11.65;5.70;;;;;;;8.99;100.00;97090.81;4985939;28;21933;-68
2022/10/09 04:29:46;;;;;;;15.40;5.18;;;;;;;8.99;100.00;97091.59;4975773;28;20046;-67
2022/10/09 04:32:11;;;;;;;14.50;5.25;;;;;;;8.86;100.00;97108.34;4975767;28;20078;-67
2022/10/09 04:34:37;;;;;;;17.02;5.20;;;;;;;8.80;100.00;97102.34;4985509;28;20391;-67
2022/10/09 04:37:03;;;;;;;12.07;4.63;;;;;;;8.76;100.00;97109.63;4982619;28;20491;-67
2022/10/09 04:39:29;;;;;;;10.73;4.78;;;;;;;8.92;100.00;97113.25;4981503;28;20054;-68
2022/10/09 04:41:54;;;;;;;9.60;5.43;;;;;;;8.90;100.00;97112.78;4984390;28;20101;-66
2022/10/09 04:44:20;;;;;;;12.68;4.38;;;;;;;8.87;100.00;97113.47;4979390;28;20117;-68
2022/10/09 04:46:48;;;;;;;8.98;4.47;;;;;;;8.86;100.00;97108.34;4982885;28;20550;-67
2022/10/09 04:49:14;;;;;;;15.50;5.30;;;;;;;8.79;100.00;97106.22;4980484;28;20042;-68
2022/10/09 04:51:39;;;;;;;13.23;4.30;;;;;;;8.74;100.00;97106.47;4984706;28;20741;-67
2022/10/09 04:54:05;;;;;;;13.95;4.68;;;;;;;8.77;100.00;97098.38;4979610;28;20108;-69
2022/10/09 04:56:31;;;;;;;13.73;4.50;;;;;;;8.78;100.00;97096.44;4983417;28;20042;-67
2022/10/09 04:58:57;;;;;;;9.07;4.35;;;;;;;8.80;100.00;97099.59;4983800;28;20522;-67
2022/10/09 05:01:24;;;;;;;9.27;4.43;;;;;;;8.76;100.00;97095.97;4979146;28;20827;-66
2022/10/09 05:03:51;;;;;;;12.25;4.63;;;;;;;8.73;100.00;97097.47;4984593;28;20828;-67
2022/10/09 05:06:18;;;;;;;10.88;5.28;;;;;;;8.69;100.00;97099.28;4977651;28;20120;-67
2022/10/09 05:08:44;;;;;;;9.98;3.92;;;;;;;8.74;100.00;97092.81;4984977;28;20042;-68
2022/10/09 05:11:13;;;;;;;8.25;4.63;;;;;;;8.68;100.00;97091.44;4980288;28;20074;-69
2022/10/09 05:13:41;;;;;;;7.70;4.15;;;;;;;8.77;100.00;97089.41;4983836;28;20048;-68
2022/10/09 05:16:10;;;;;;;10.68;4.68;;;;;;;8.71;100.00;97083.34;4978528;28;20050;-69
2022/10/09 05:18:41;;;;;;;9.63;4.57;;;;;;;8.66;100.00;97086.34;4983908;28;20092;-70
2022/10/09 05:21:07;;;;;;;8.38;4.30;;;;;;;8.61;100.00;97087.38;4979256;28;20105;-69
2022/10/09 05:23:34;;;;;;;10.32;5.07;;;;;;;8.66;100.00;97093.72;4983968;28;20336;-68
2022/10/09 05:26:02;;;;;;;11.60;4.70;;;;;;;8.55;100.00;97088.75;4986979;28;20050;-68
2022/10/09 05:28:38;;;;;;;12.25;4.70;;;;;;;8.45;100.00;97091.16;5001569;28;20042;-68
2022/10/09 05:31:05;;;;;;;13.02;4.85;;;;;;;8.47;100.00;97091.59;5011148;28;20038;-70
2022/10/09 05:33:31;;;;;;;17.88;5.10;;;;;;;8.41;100.00;97091.00;4989826;28;20092;-68
2022/10/09 05:35:59;;;;;;;13.02;5.18;;;;;;;8.45;100.00;97082.97;4983589;28;20034;-68
2022/10/09 05:38:26;;;;;;;17.08;5.40;;;;;;;8.51;100.00;97084.31;4980475;28;20061;-68
2022/10/09 05:41:00;;;;;;;13.13;5.28;;;;;;;8.50;100.00;97086.25;4994512;28;20109;-68
2022/10/09 05:43:29;;;;;;;11.20;5.05;;;;;;;8.48;100.00;97090.44;4980913;28;20049;-68
2022/10/09 05:45:54;;;;;;;12.70;4.90;;;;;;;8.50;100.00;97083.53;4982664;28;20042;-69
2022/10/09 05:48:21;;;;;;;10.80;6.03;;;;;;;8.44;100.00;97084.88;4978124;28;20042;-69
2022/10/09 05:50:47;;;;;;;13.23;4.85;;;;;;;8.41;100.00;97094.53;4984321;28;20135;-69
2022/10/09 05:53:13;;;;;;;13.10;5.78;;;;;;;8.31;100.00;97096.94;4978125;28;20407;-69
2022/10/09 05:55:38;;;;;;;13.15;5.15;;;;;;;8.32;100.00;97093.03;4982385;28;20046;-70
2022/10/09 05:58:05;;;;;;;13.77;5.30;;;;;;;8.28;100.00;97103.84;4980068;28;20145;-70
2022/10/09 06:00:30;;;;;;;13.02;5.28;;;;;;;8.29;100.00;97091.81;4982131;28;20081;-68
2022/10/09 06:02:56;;;;;;;13.70;5.75;;;;;;;8.33;100.00;97100.88;4983380;28;20042;-69
2022/10/09 06:05:22;;;;;;;11.30;5.57;;;;;;;8.39;100.00;97099.53;4978249;28;20054;-70
2022/10/09 06:07:47;;;;;;;7.40;5.13;;;;;;;8.35;100.00;97097.81;4983333;28;20042;-69
2022/10/09 06:10:13;;;;;;;13.13;4.85;;;;;;;8.34;100.00;97097.03;4978750;28;20042;-69
2022/10/09 06:12:39;;;;;;;13.85;5.82;;;;;;;8.42;100.00;97098.06;4982046;28;20042;-69
2022/10/09 06:15:05;;;;;;;11.35;5.55;;;;;;;8.40;100.00;97105.78;4978675;28;20402;-71
2022/10/09 06:17:31;;;;;;;14.52;6.10;;;;;;;8.35;100.00;97103.28;4982125;28;20046;-69
2022/10/09 06:19:57;;;;;;;19.38;8.40;;;;;;;8.39;100.00;97106.91;4975327;28;20054;-69
2022/10/09 06:22:22;;;;;;;13.82;6.47;;;;;;;8.37;100.00;97109.19;4979368;28;20905;-69
2022/10/09 06:24:47;;;;;;;12.20;5.90;;;;;;;8.28;100.00;97106.56;4982494;28;20042;-69
2022/10/09 06:27:13;;;;;;;10.73;5.40;;;;;;;8.31;100.00;97102.38;4977293;28;20494;-67
2022/10/09 06:29:38;;;;;;;17.90;6.53;;;;;;;8.39;100.00;97106.91;4982942;28;20049;-67
2022/10/09 06:32:04;;;;;;;14.55;5.70;;;;;;;8.39;100.00;97104.19;4970179;28;20083;-68
2022/10/09 06:34:29;;;;;;;12.35;6.80;;;;;;;8.41;100.00;97097.25;4980702;28;20057;-67
2022/10/09 06:36:55;;;;;;;13.43;5.75;;;;;;;8.42;100.00;97101.59;4982705;28;20049;-67
2022/10/09 06:39:22;;;;;;;13.02;6.03;;;;;;;8.46;100.00;97107.16;4976764;28;21323;-67
2022/10/09 06:41:47;;;;;;;12.13;5.85;;;;;;;8.46;100.00;97098.97;4982264;28;20125;-67
2022/10/09 06:44:15;;;;;;;13.27;5.95;;;;;;;8.51;100.00;97100.69;4977261;28;20066;-67
2022/10/09 06:46:41;;;;;;;13.75;6.22;;;;;;;8.51;100.00;97108.88;4981426;28;20720;-67
2022/10/09 06:49:09;;;;;;;12.98;5.88;;;;;;;8.50;100.00;97108.09;4977291;28;20395;-66
2022/10/09 06:51:35;;;;;;;15.07;7.28;;;;;;;8.57;100.00;97096.56;4982581;28;20039;-67
2022/10/09 06:54:08;;;;;;;14.23;6.40;;;;;;;8.58;100.00;97109.09;4982018;28;20056;-68
2022/10/09 06:56:33;;;;;;;18.20;6.32;;;;;;;8.69;100.00;97107.47;4981070;28;20045;-68
2022/10/09 06:59:00;;;;;;;11.32;6.15;;;;;;;8.71;100.00;97107.13;4982440;28;20184;-68
2022/10/09 07:01:33;;;;;;;17.65;6.15;;;;;;;8.72;100.00;97114.22;4976024;28;20093;-68
2022/10/09 07:04:08;;;;;;;11.70;6.10;;;;;;;8.80;100.00;97118.72;4982457;28;20050;-68
2022/10/09 07:06:38;;;;;;;14.93;6.43;;;;;;;8.84;100.00;97108.72;4998121;28;20081;-68
2022/10/09 07:09:07;;;;;;;9.93;6.18;;;;;;;8.84;100.00;97110.63;4987467;28;20073;-67
2022/10/09 07:11:38;;;;;;;12.52;7.32;;;;;;;8.89;100.00;97119.38;4985167;28;20062;-68
2022/10/09 07:14:07;;;;;;;18.60;9.57;;;;;;;8.93;100.00;97114.84;4984685;28;20046;-68
2022/10/09 07:16:42;;;;;;;10.63;6.53;;;;;;;8.94;100.00;97121.88;4987921;28;20046;-68
2022/10/09 07:19:11;;;;;;;17.30;8.45;;;;;;;8.97;100.00;97123.94;4978896;28;20053;-68
2022/10/09 07:21:38;;;;;;;17.40;8.75;;;;;;;8.99;100.00;97124.38;4982835;28;20042;-67
2022/10/09 07:24:05;;;;;;;14.52;8.63;;;;;;;9.10;100.00;97121.94;4982861;28;20589;-67
2022/10/09 07:26:33;;;;;;;12.68;7.18;;;;;;;9.23;100.00;97125.44;4985994;28;20108;-69
2022/10/09 07:28:58;;;;;;;13.90;6.82;;;;;;;9.27;100.00;97126.31;4987614;28;20565;-69
2022/10/09 07:31:26;;;;;;;13.63;7.95;;;;;;;9.23;100.00;97117.25;4993088;28;20176;-68
2022/10/09 07:33:55;;;;;;;15.15;7.75;;;;;;;9.31;100.00;97127.25;5005548;28;20042;-68
2022/10/09 07:36:21;;;;;;;12.20;7.30;;;;;;;9.37;100.00;97125.06;5008157;28;20038;-68
2022/10/09 07:38:53;;;;;;;16.83;8.70;;;;;;;9.35;100.00;97114.47;5016198;28;20305;-68
2022/10/09 07:41:20;;;;;;;12.80;7.45;;;;;;;9.54;100.00;97122.03;4996193;28;20141;-68
2022/10/09 07:43:46;;;;;;;14.30;9.15;;;;;;;9.64;100.00;97122.66;5002546;28;20105;-68
2022/10/09 07:46:16;;;;;;;27.75;12.40;;;;;;;9.75;100.00;97124.50;5002959;28;20093;-68
2022/10/09 07:48:42;;;;;;;13.27;7.60;;;;;;;9.76;100.00;97125.31;5001714;28;20139;-69
2022/10/09 07:51:17;;;;;;;13.52;6.60;;;;;;;9.74;100.00;97128.41;4995905;28;20135;-69
2022/10/09 07:53:43;;;;;;;16.58;8.00;;;;;;;9.73;100.00;97123.28;5000448;28;20041;-68
2022/10/09 07:56:27;;;;;;;15.75;7.55;;;;;;;9.81;100.00;97124.25;4995452;28;20635;-68
2022/10/09 07:58:59;;;;;;;13.75;6.55;;;;;;;9.91;100.00;97105.38;5000810;28;20130;-69
2022/10/09 08:01:26;;;;;;;14.25;5.90;;;;;;;9.99;100.00;97119.25;4996285;28;20424;-68
2022/10/09 08:03:52;;;;;;;14.07;6.47;;;;;;;10.04;100.00;97122.50;5001126;28;20132;-69
2022/10/09 08:06:19;;;;;;;9.18;5.93;;;;;;;10.19;100.00;97115.47;4994099;28;20117;-67
2022/10/09 08:08:48;;;;;;;12.27;6.85;;;;;;;10.21;100.00;97120.56;5004842;28;20069;-69
2022/10/09 08:11:15;;;;;;;10.38;6.78;;;;;;;10.41;100.00;97116.00;4999690;28;20045;-69
2022/10/09 08:13:41;;;;;;;15.00;5.88;;;;;;;10.84;100.00;97116.97;5004515;28;20458;-68
2022/10/09 08:16:07;;;;;;;12.20;5.57;;;;;;;10.88;100.00;97106.88;4998564;28;20108;-69
2022/10/09 08:18:33;;;;;;;14.55;6.22;;;;;;;10.81;100.00;97113.00;4997932;28;20468;-69
2022/10/09 08:21:08;;;;;;;15.60;6.90;;;;;;;10.78;100.00;97113.72;4984252;28;20129;-68
2022/10/09 08:23:34;;;;;;;10.73;7.35;;;;;;;10.78;100.00;97107.44;4980726;28;20050;-68
2022/10/09 08:25:59;;;;;;;11.07;5.47;;;;;;;11.08;100.00;97116.72;4983064;28;20057;-67
2022/10/09 08:28:25;;;;;;;13.50;5.97;;;;;;;11.07;100.00;97111.59;4980190;28;20038;-69
2022/10/09 08:30:50;;;;;;;11.70;6.47;;;;;;;11.23;100.00;97106.03;4991567;28;20436;-68
2022/10/09 08:33:20;;;;;;;12.55;5.38;;;;;;;11.20;100.00;97115.78;4979874;28;20038;-68
2022/10/09 08:35:47;;;;;;;10.77;5.35;;;;;;;11.59;100.00;97106.75;4983492;28;20034;-69
2022/10/09 08:38:13;;;;;;;13.40;5.88;;;;;;;11.81;100.00;97119.72;4978500;28;20070;-68
2022/10/09 08:41:01;;;;;;;11.30;6.40;;;;;;;11.28;100.00;97108.50;4984370;28;20471;-68
2022/10/09 08:43:41;;;;;;;13.68;6.30;;;;;;;11.15;100.00;97112.53;4960033;28;20047;-68
2022/10/09 08:46:16;;;;;;;13.23;6.60;;;;;;;11.11;100.00;97101.50;4959604;28;20035;-68
2022/10/09 08:48:44;;;;;;;12.88;7.13;;;;;;;11.20;100.00;97113.06;4965968;28;20134;-68
2022/10/09 08:51:21;;;;;;;15.57;8.40;;;;;;;11.27;100.00;97106.91;4959819;28;20486;-67
2022/10/09 08:53:54;;;;;;;16.33;8.07;;;;;;;11.40;100.00;97115.78;4963344;28;20477;-68
2022/10/09 08:56:21;;;;;;;12.18;6.35;;;;;;;11.06;100.00;97113.53;4958534;28;20046;-68
2022/10/09 08:58:47;;;;;;;20.40;10.40;;;;;;;11.28;100.00;97111.25;4964162;28;20039;-68
2022/10/09 09:01:21;;;;;;;13.70;7.75;;;;;;;11.16;100.00;97112.16;4959513;28;20049;-68
2022/10/09 09:04:05;;;;;;;20.55;8.68;;;;;;;11.26;100.00;97113.56;4965211;28;20051;-68
2022/10/09 09:07:02;;;;;;;18.17;7.50;;;;;;;11.69;100.00;97111.63;4983481;28;20054;-68
2022/10/09 09:09:49;;;;;;;17.00;7.43;;;;;;;11.61;100.00;97113.47;4982040;28;20049;-68
2022/10/09 09:12:24;;;;;;;22.70;10.65;;;;;;;11.38;100.00;97107.91;4985984;28;20038;-69
2022/10/09 09:15:04;;;;;;;13.45;6.88;;;;;;;11.34;100.00;97104.28;4991693;28;20046;-69
2022/10/09 09:17:51;;;;;;;25.65;12.02;;;;;;;11.46;100.00;97108.84;4986414;28;20570;-69
2022/10/09 09:20:28;;;;;;;41.47;16.55;;;;;;;11.73;100.00;97107.00;4979522;28;20050;-67
2022/10/09 09:22:55;;;;;;;14.32;7.65;;;;;;;11.92;100.00;97106.22;4984475;28;20049;-68
2022/10/09 09:25:32;;;;;;;13.18;6.32;;;;;;;12.09;100.00;97109.63;4977700;28;20129;-68
2022/10/09 09:28:09;;;;;;;9.50;5.30;;;;;;;12.05;100.00;97101.31;4983821;28;20073;-68
2022/10/09 09:30:46;;;;;;;13.65;6.20;;;;;;;11.74;100.00;97085.84;4982751;28;20045;-69
2022/10/09 09:33:11;;;;;;;15.45;5.72;;;;;;;11.80;100.00;97092.63;4982222;28;20042;-70
2022/10/09 09:35:48;;;;;;;14.55;4.97;;;;;;;12.14;100.00;97090.09;4968403;28;20066;-69
2022/10/09 09:38:14;;;;;;;13.05;6.10;;;;;;;12.02;100.00;97094.59;4959368;28;20504;-69
2022/10/09 09:40:42;;;;;;;10.38;5.40;;;;;;;12.24;100.00;97082.03;4964530;28;20047;-69
2022/10/09 09:43:25;;;;;;;9.55;5.40;;;;;;;12.62;100.00;97076.69;4964997;28;20039;-70
2022/10/09 09:45:53;;;;;;;10.43;5.00;;;;;;;12.49;100.00;97084.34;4974393;28;20092;-68
2022/10/09 09:48:22;;;;;;;11.88;5.55;;;;;;;12.59;100.00;97083.72;4950148;28;20166;-70
2022/10/09 09:50:51;;;;;;;10.82;5.55;;;;;;;12.60;100.00;97077.09;4951412;28;20054;-69
2022/10/09 09:53:25;;;;;;;19.55;6.35;;;;;;;12.77;100.00;97075.72;4952236;28;20058;-69
2022/10/09 09:55:52;;;;;;;14.68;9.18;;;;;;;13.16;100.00;97072.72;4952626;28;20039;-69
2022/10/09 09:58:19;;;;;;;8.65;5.35;;;;;;;12.59;100.00;97074.69;4940973;28;20047;-68
2022/10/09 10:01:00;;;;;;;10.93;5.72;;;;;;;12.69;100.00;97073.25;4943795;28;20035;-68
2022/10/09 10:03:26;;;;;;;14.00;6.78;;;;;;;12.89;100.00;97069.22;4939725;28;20039;-68
2022/10/09 10:05:52;;;;;;;17.33;9.55;;;;;;;12.60;100.00;97063.34;4944033;28;20051;-68
2022/10/09 10:08:46;;;;;;;11.95;6.80;;;;;;;12.77;100.00;97067.50;4939164;28;20047;-67
2022/10/09 10:11:17;;;;;;;11.68;6.00;;;;;;;12.53;100.00;97065.16;4930985;28;20054;-68
2022/10/09 10:13:50;;;;;;;10.60;4.70;;;;;;;12.57;100.00;97068.78;4940969;28;20051;-68
2022/10/09 10:16:25;;;;;;;9.63;4.85;;;;;;;12.67;100.00;97072.84;4939165;28;20051;-66
2022/10/09 10:18:52;;;;;;;9.68;4.57;;;;;;;12.61;100.00;97066.88;4944794;28;20198;-67
2022/10/09 10:21:19;;;;;;;8.15;4.32;;;;;;;12.51;100.00;97068.28;4937193;28;20548;-69
2022/10/09 10:24:01;;;;;;;11.07;5.55;;;;;;;12.66;100.00;97069.31;4944733;28;20047;-66
2022/10/09 10:26:37;;;;;;;12.32;4.47;;;;;;;12.80;100.00;97065.94;4957161;28;20059;-68
2022/10/09 10:29:12;;;;;;;12.63;6.50;;;;;;;12.68;100.00;97063.44;4953280;28;20047;-69
2022/10/09 10:31:42;;;;;;;12.98;7.15;;;;;;;12.58;100.00;97051.13;4964979;28;20504;-68
2022/10/09 10:34:18;;;;;;;10.07;5.15;;;;;;;12.70;100.00;97061.13;4955928;28;20130;-68
2022/10/09 10:36:56;;;;;;;8.25;4.50;;;;;;;12.83;100.00;97059.72;4943904;28;20090;-68
2022/10/09 10:39:32;;;;;;;14.55;7.38;;;;;;;13.03;100.00;97065.84;4944454;28;20464;-69
2022/10/09 10:42:03;;;;;;;12.52;4.68;;;;;;;13.17;100.00;97063.28;4961370;28;20071;-69
2022/10/09 10:44:42;;;;;;;15.00;5.32;;;;;;;13.24;100.00;97061.78;4945668;28;20055;-68
2022/10/09 10:47:16;;;;;;;9.20;5.15;;;;;;;13.07;100.00;97063.97;4948341;28;20134;-67
2022/10/09 10:49:41;;;;;;;12.10;4.38;;;;;;;13.18;100.00;97062.13;4964154;28;20129;-67
2022/10/09 10:52:32;;;;;;;12.13;3.97;;;;;;;13.36;100.00;97058.78;4960018;28;20606;-68
2022/10/09 10:55:17;;;;;;;9.68;4.43;;;;;;;13.08;100.00;97060.03;4963886;28;20145;-68
2022/10/09 10:58:02;;;;;;;7.07;3.42;;;;;;;12.87;100.00;97057.78;4982143;28;20050;-67
2022/10/09 11:00:32;;;;;;;7.45;4.00;;;;;;;12.91;100.00;97063.34;4977916;28;20046;-67
2022/10/09 11:03:02;;;;;;;8.48;3.78;;;;;;;12.98;100.00;97061.50;4983414;28;20120;-68
2022/10/09 11:05:47;;;;;;;12.57;3.97;;;;;;;12.99;100.00;97059.53;4978014;28;20038;-68
2022/10/09 11:08:27;;;;;;;8.80;4.35;;;;;;;13.25;100.00;97064.16;4992857;28;20042;-68
2022/10/09 11:11:11;;;;;;;11.48;4.38;;;;;;;13.21;100.00;97066.06;4994705;28;20042;-68
2022/10/09 11:13:54;;;;;;;14.57;7.50;;;;;;;13.10;100.00;97056.91;4989183;28;20042;-68
2022/10/09 11:16:42;;;;;;;10.65;4.38;;;;;;;13.18;100.00;97061.31;4979166;28;20050;-68
2022/10/09 11:19:39;;;;;;;10.15;4.15;;;;;;;13.07;100.00;97055.72;4976564;28;20101;-70
2022/10/09 11:22:20;;;;;;;9.23;3.80;;;;;;;13.17;100.00;97055.03;4977836;28;20050;-68
2022/10/09 11:24:51;;;;;;;11.02;3.85;;;;;;;13.37;100.00;97047.41;4981954;28;20046;-68
2022/10/09 11:27:28;;;;;;;9.38;4.03;;;;;;;13.54;100.00;97040.53;4977138;28;20545;-67
2022/10/09 11:30:00;;;;;;;10.38;3.55;;;;;;;13.69;100.00;97043.44;4974066;28;20132;-67
2022/10/09 11:32:44;;;;;;;9.55;5.50;;;;;;;13.57;100.00;97048.00;4967429;28;20527;-68
2022/10/09 11:35:24;;;;;;;11.10;3.85;;;;;;;13.73;100.00;97041.50;4946614;28;20051;-67
2022/10/09 11:37:59;;;;;;;11.00;4.15;;;;;;;13.83;100.00;97035.31;4943317;28;20044;-68